Airfield :
LOGIN :

Register | Disclaimer

   EN    FR    IT 

 










Legend :    VFR   Marginal VFR   IFR   Intensive IFR   Very Intensive IFR
Visi :
Ceiling :
>= 8 km
>= 3000ft
5 to 8 km
1000 to 3000 ft
1500m to 5 km
500 to 1000 ft
800 to 1500m
200 to 500 ft
< 800m
< 200 ft
Symbols :   Thunderstorms  Fog  Heavy snow  Heavy precipitations  Wind > 20 kt
SIGMETs :     Misc.  Thunderstorms  Icing  Turbulence  Mountain Waves  Volcanic Ashes






- Airport Elevation : 870 ft
- IATA code : ETZ


LFJL - Metz Nancy Lorraine

CURRENT METAR :
  • 052000Z AUTO 26005KT 9999 OVC041 22/16 Q1015 NOSIG

EXPIRED METARs :
  • 051930Z AUTO 25007KT 9999 BKN045 BKN054 OVC068 23/16 Q1015 NOSIG
  • 051900Z AUTO 26010KT 9999 SCT045 OVC062 23/16 Q1015 NOSIG
  • 051830Z AUTO 26014KT 9999 BKN043 BKN050 BKN060 24/16 Q1015 NOSIG
  • 051800Z AUTO 25015KT 9999 BKN042 BKN050 24/16 Q1016 NOSIG
  • 051730Z AUTO 25013KT 9999 OVC042 24/15 Q1016 NOSIG

TAF TAF LFJL
Valid from the 05 at 18:00 until the 06 at 18:00 UTC


051700Z 0518/0618 24012KT 9999 BKN050
BECMG 0522/0601 30012KT
PROB30
TEMPO 0522/0602 -RADZ
PROB40
TEMPO 0600/0602 30015G25KT
BECMG 0612/0615 CAVOK
PROB30
TEMPO 0615/0618 30015G25KT



MET'MAP, your aeronautical weather chart ! - Copyright ORBIFLY December 2007 - Disclaimer

ORBIFLY MET'MAP TEAM :

Programming & Development : Alexandra Zaïnal
Concept & original design : Baudouin d'Aumeries
Assistance for programming : Marc-Olivier Méhu
Technical & hardware support : Manuel Goepfert

Contact : metmap@orbifly.com




SOURCES & CREDITS :

   NOAA